Terminal Aerodrome Forecast
Issued by NWS Sioux Falls, SD

Home | Current Version | Previous Version | Graphics & Text | Print | Product List | Glossary Off
Versions: 1 2 3 4 5 6 7 8 9 10 11 12 13 14

000
FTUS43 KFSD 291120
TAFFSD
TAF
KFSD 291120Z 2912/3012 17006KT P6SM FEW250
     FM300600 15004KT P6SM VCTS BKN080CB
     FM300900 VRB02KT P6SM SCT080=

USA.gov is the U.S. government's official web portal to all federal, state and local government web resources and services.